createdAt,value
2019-01-13T00:00:31.996Z,53.70
2019-01-13T00:03:00.477Z,53.70
2019-01-13T00:05:28.899Z,53.70
2019-01-13T00:07:57.321Z,53.70
2019-01-13T00:10:25.769Z,53.70
2019-01-13T00:12:54.162Z,53.70
2019-01-13T00:15:22.470Z,53.70
2019-01-13T00:17:50.774Z,53.70
2019-01-13T00:20:19.171Z,54.00
2019-01-13T00:22:47.697Z,53.70
2019-01-13T00:25:16.218Z,53.90
2019-01-13T00:27:44.525Z,53.80
2019-01-13T00:30:19.387Z,53.90
2019-01-13T00:32:48.072Z,54.40
2019-01-13T00:35:16.681Z,54.00
2019-01-13T00:37:45.058Z,54.10
2019-01-13T00:40:17.944Z,54.20
2019-01-13T00:42:46.284Z,54.20
2019-01-13T00:45:15.508Z,54.30
2019-01-13T00:47:43.895Z,54.30
2019-01-13T00:50:14.038Z,54.30
2019-01-13T00:52:42.395Z,54.30
2019-01-13T00:55:12.362Z,54.30
2019-01-13T00:57:40.698Z,54.20
2019-01-13T01:00:15.225Z,54.20
2019-01-13T01:02:43.604Z,54.10
2019-01-13T01:05:11.888Z,54.00
2019-01-13T01:07:40.360Z,53.80
2019-01-13T01:10:14.387Z,53.90
2019-01-13T01:12:42.696Z,53.70
2019-01-13T01:15:11.570Z,53.70
2019-01-13T01:17:39.848Z,53.50
2019-01-13T01:20:13.694Z,53.40
2019-01-13T01:22:42.221Z,53.40
2019-01-13T01:25:12.276Z,53.30
2019-01-13T01:27:40.665Z,53.30
2019-01-13T01:30:12.713Z,53.40
2019-01-13T01:32:41.098Z,53.30
2019-01-13T01:35:09.482Z,53.40
2019-01-13T01:37:37.824Z,53.30
2019-01-13T01:40:09.396Z,53.40
2019-01-13T01:42:37.758Z,53.40
2019-01-13T01:45:08.601Z,53.40
2019-01-13T01:47:36.970Z,53.40
2019-01-13T01:50:07.904Z,53.40
2019-01-13T01:52:36.190Z,53.50
2019-01-13T01:55:06.866Z,53.50
2019-01-13T01:57:35.207Z,53.50
2019-01-13T02:00:06.388Z,53.60
2019-01-13T02:02:34.742Z,53.60
2019-01-13T02:05:03.119Z,53.60
2019-01-13T02:07:31.438Z,53.50
2019-01-13T02:09:59.787Z,53.50
2019-01-13T02:12:28.267Z,54.10
2019-01-13T02:14:56.546Z,53.70
2019-01-13T02:17:24.853Z,53.70
2019-01-13T02:19:53.202Z,53.70
2019-01-13T02:22:21.521Z,53.80
2019-01-13T02:24:49.953Z,53.80
2019-01-13T02:27:18.359Z,53.80
2019-01-13T02:29:46.667Z,53.70
2019-01-13T02:32:15.019Z,53.70
2019-01-13T02:34:43.390Z,53.50
2019-01-13T02:37:11.674Z,53.50
2019-01-13T02:39:40.098Z,53.50
2019-01-13T02:42:08.483Z,53.50
2019-01-13T02:44:36.857Z,53.50
2019-01-13T02:47:05.242Z,53.50
2019-01-13T02:49:33.622Z,53.50
2019-01-13T02:52:01.923Z,53.50
2019-01-13T02:54:30.205Z,53.50
2019-01-13T02:56:58.611Z,53.50
2019-01-13T02:59:27.130Z,53.50
2019-01-13T03:01:55.420Z,53.60
2019-01-13T03:04:23.813Z,53.60
2019-01-13T03:06:52.200Z,53.70
2019-01-13T03:09:20.607Z,53.60
2019-01-13T03:11:49.046Z,53.50
2019-01-13T03:14:17.337Z,53.60
2019-01-13T03:16:45.655Z,53.50
2019-01-13T03:19:14.034Z,53.50
2019-01-13T03:21:42.448Z,53.50
2019-01-13T03:24:10.840Z,53.50
2019-01-13T03:26:39.218Z,53.40
2019-01-13T03:29:07.607Z,53.40
2019-01-13T03:31:36.024Z,53.50
2019-01-13T03:34:04.349Z,53.50
2019-01-13T03:36:32.654Z,53.50
2019-01-13T03:39:01.040Z,53.60
2019-01-13T03:41:29.457Z,53.50
2019-01-13T03:43:57.766Z,53.50
2019-01-13T03:46:26.145Z,53.50
2019-01-13T03:48:54.519Z,53.50
2019-01-13T03:51:22.806Z,53.60
2019-01-13T03:53:51.250Z,53.60
2019-01-13T03:56:19.695Z,53.60
2019-01-13T03:58:48.007Z,53.70
2019-01-13T04:01:18.659Z,53.60
2019-01-13T04:03:46.523Z,53.80
2019-01-13T04:06:14.892Z,53.80
2019-01-13T04:08:43.197Z,53.80
2019-01-13T04:11:12.430Z,53.90
2019-01-13T04:13:40.797Z,53.80
2019-01-13T04:16:09.173Z,53.80
2019-01-13T04:18:37.535Z,53.90
2019-01-13T04:21:06.014Z,53.90
2019-01-13T04:23:34.373Z,53.90
2019-01-13T04:26:02.753Z,53.90
2019-01-13T04:28:31.213Z,53.90
2019-01-13T04:30:59.612Z,53.90
2019-01-13T04:33:27.976Z,54.00
2019-01-13T04:35:56.373Z,54.00
2019-01-13T04:38:24.744Z,54.00
2019-01-13T04:40:53.385Z,54.00
2019-01-13T04:43:21.753Z,54.00
2019-01-13T04:45:50.120Z,54.00
2019-01-13T04:48:18.490Z,54.00
2019-01-13T04:50:47.055Z,54.10
2019-01-13T04:53:15.427Z,54.10
2019-01-13T04:55:43.799Z,54.20
2019-01-13T04:58:12.159Z,54.20
2019-01-13T05:00:40.550Z,54.20
2019-01-13T05:03:08.909Z,54.20
2019-01-13T05:05:37.293Z,54.20
2019-01-13T05:08:05.643Z,54.20
2019-01-13T05:10:34.016Z,54.20
2019-01-13T05:13:02.517Z,54.20
2019-01-13T05:15:30.913Z,54.30
2019-01-13T05:17:59.226Z,54.30
2019-01-13T05:20:27.702Z,54.30
2019-01-13T05:22:56.777Z,54.30
2019-01-13T05:25:25.242Z,54.40
2019-01-13T05:27:53.537Z,54.30
2019-01-13T05:30:22.283Z,54.40
2019-01-13T05:32:50.604Z,54.40
2019-01-13T05:35:18.980Z,54.30
2019-01-13T05:37:47.338Z,54.40
2019-01-13T05:40:17.380Z,54.40
2019-01-13T05:42:45.731Z,54.40
2019-01-13T05:45:16.045Z,54.40
2019-01-13T05:47:44.428Z,54.50
2019-01-13T05:50:14.429Z,54.50
2019-01-13T05:52:43.735Z,54.50
2019-01-13T05:55:12.280Z,54.50
2019-01-13T05:57:40.568Z,54.50
2019-01-13T06:00:12.280Z,54.60
2019-01-13T06:02:40.628Z,54.70
2019-01-13T06:05:08.911Z,54.70
2019-01-13T06:07:37.238Z,54.70
2019-01-13T06:10:08.969Z,54.90
2019-01-13T06:12:37.317Z,54.60
2019-01-13T06:15:08.586Z,54.60
2019-01-13T06:17:37.040Z,54.60
2019-01-13T06:20:08.668Z,54.50
2019-01-13T06:22:37.103Z,54.50
2019-01-13T06:25:06.067Z,54.40
2019-01-13T06:27:34.431Z,54.40
2019-01-13T06:30:02.810Z,54.40
2019-01-13T06:32:31.184Z,54.40
2019-01-13T06:34:59.560Z,54.50
2019-01-13T06:37:27.829Z,54.50
2019-01-13T06:39:56.221Z,54.50
2019-01-13T06:42:24.528Z,54.50
2019-01-13T06:44:52.994Z,54.60
2019-01-13T06:47:21.360Z,54.60
2019-01-13T06:49:49.746Z,54.80
2019-01-13T06:52:18.018Z,54.60
2019-01-13T06:54:46.342Z,54.70
2019-01-13T06:57:14.700Z,54.60
2019-01-13T06:59:42.986Z,54.70
2019-01-13T07:02:11.328Z,54.70
2019-01-13T07:04:39.654Z,54.70
2019-01-13T07:07:08.012Z,54.60
2019-01-13T07:09:36.418Z,54.60
2019-01-13T07:12:04.750Z,54.60
2019-01-13T07:14:33.052Z,54.60
2019-01-13T07:17:01.409Z,54.60
2019-01-13T07:19:29.711Z,54.50
2019-01-13T07:21:57.994Z,54.50
2019-01-13T07:24:26.484Z,54.40
2019-01-13T07:26:54.848Z,54.40
2019-01-13T07:29:23.233Z,54.70
2019-01-13T07:31:51.589Z,54.40
2019-01-13T07:34:39.406Z,54.40
2019-01-13T07:37:07.777Z,54.40
2019-01-13T07:39:36.153Z,54.50
2019-01-13T07:42:04.533Z,54.40
2019-01-13T07:44:32.918Z,54.40
2019-01-13T07:47:01.287Z,54.50
2019-01-13T07:49:29.658Z,54.50
2019-01-13T07:51:57.936Z,54.60
2019-01-13T07:54:26.302Z,54.60
2019-01-13T07:56:54.779Z,54.60
2019-01-13T07:59:23.170Z,54.60
2019-01-13T08:01:51.548Z,54.70
2019-01-13T08:04:19.915Z,54.70
2019-01-13T08:06:48.322Z,54.70
2019-01-13T08:09:16.713Z,54.70
2019-01-13T08:11:45.073Z,54.80
2019-01-13T08:14:13.363Z,54.90
2019-01-13T08:16:41.729Z,54.90
2019-01-13T08:19:10.016Z,55.00
2019-01-13T08:21:38.387Z,55.00
2019-01-13T08:24:06.695Z,55.10
2019-01-13T08:26:35.081Z,55.00
2019-01-13T08:29:03.460Z,55.10
2019-01-13T08:31:31.832Z,55.10
2019-01-13T08:34:00.127Z,55.10
2019-01-13T08:36:28.451Z,55.20
2019-01-13T08:38:56.765Z,55.30
2019-01-13T08:41:25.134Z,55.20
2019-01-13T08:43:53.503Z,55.30
2019-01-13T08:46:21.889Z,55.30
2019-01-13T08:48:50.210Z,55.40
2019-01-13T08:51:18.579Z,55.40
2019-01-13T08:53:46.945Z,55.50
2019-01-13T08:56:15.328Z,55.50
2019-01-13T08:58:43.695Z,55.50
2019-01-13T09:01:12.084Z,55.50
2019-01-13T09:03:40.453Z,55.40
2019-01-13T09:06:08.886Z,55.50
2019-01-13T09:08:37.262Z,55.40
2019-01-13T09:11:05.650Z,55.20
2019-01-13T09:13:34.033Z,55.50
2019-01-13T09:16:02.405Z,55.50
2019-01-13T09:18:30.763Z,55.50
2019-01-13T09:20:59.048Z,55.40
2019-01-13T09:23:27.339Z,55.40
2019-01-13T09:25:55.696Z,55.50
2019-01-13T09:28:24.014Z,55.80
2019-01-13T09:30:52.380Z,55.40
2019-01-13T09:33:20.679Z,55.30
2019-01-13T09:35:49.080Z,55.40
2019-01-13T09:38:17.445Z,55.40
2019-01-13T09:40:45.799Z,55.50
2019-01-13T09:43:14.183Z,55.50
2019-01-13T09:45:42.545Z,55.60
2019-01-13T09:48:10.831Z,55.60
2019-01-13T09:50:39.139Z,55.70
2019-01-13T09:53:07.453Z,55.60
2019-01-13T09:55:35.833Z,55.60
2019-01-13T09:58:04.208Z,55.60
2019-01-13T10:00:34.064Z,55.60
2019-01-13T10:03:04.093Z,55.70
2019-01-13T10:05:32.597Z,55.70
2019-01-13T10:08:00.970Z,55.70
2019-01-13T10:10:29.341Z,55.70
2019-01-13T10:12:57.650Z,55.70
2019-01-13T10:15:27.105Z,55.80
2019-01-13T10:17:55.464Z,55.70
2019-01-13T10:20:23.923Z,55.80
2019-01-13T10:22:52.285Z,55.70
2019-01-13T10:25:20.609Z,55.70
2019-01-13T10:27:48.996Z,56.10
2019-01-13T10:30:25.487Z,55.60
2019-01-13T10:32:55.131Z,55.50
2019-01-13T10:35:24.197Z,55.40
2019-01-13T10:37:52.585Z,55.40
2019-01-13T10:40:26.068Z,55.40
2019-01-13T10:42:54.408Z,55.40
2019-01-13T10:45:22.708Z,55.40
2019-01-13T10:47:51.010Z,55.50
2019-01-13T10:50:22.209Z,55.40
2019-01-13T10:52:50.780Z,55.50
2019-01-13T10:55:19.157Z,55.50
2019-01-13T10:57:47.449Z,55.30
2019-01-13T11:00:24.621Z,55.50
2019-01-13T11:02:52.965Z,55.00
2019-01-13T11:05:21.378Z,53.90
2019-01-13T11:07:50.578Z,54.00
2019-01-13T11:10:18.889Z,54.00
2019-01-13T11:12:47.306Z,53.90
2019-01-13T11:15:21.546Z,54.60
2019-01-13T11:17:47.025Z,54.60
2019-01-13T11:20:18.602Z,54.60
2019-01-13T11:22:46.908Z,54.50
2019-01-13T11:25:15.486Z,54.70
2019-01-13T11:27:43.899Z,54.70
2019-01-13T11:30:15.630Z,54.80
2019-01-13T11:32:43.995Z,54.70
2019-01-13T11:35:13.410Z,54.50
2019-01-13T11:37:43.398Z,54.60
2019-01-13T11:40:14.935Z,54.50
2019-01-13T11:42:43.298Z,54.50
2019-01-13T11:45:12.138Z,54.50
2019-01-13T11:47:40.412Z,54.40
2019-01-13T11:50:14.545Z,54.20
2019-01-13T11:52:42.903Z,54.30
2019-01-13T11:55:13.445Z,54.20
2019-01-13T11:57:41.790Z,54.30
2019-01-13T12:00:15.869Z,54.30
2019-01-13T12:02:44.276Z,54.30
2019-01-13T12:05:12.666Z,54.30
2019-01-13T12:07:41.027Z,54.10
2019-01-13T12:10:14.016Z,54.30
2019-01-13T12:12:42.504Z,54.20
2019-01-13T12:15:13.135Z,54.20
2019-01-13T12:17:41.447Z,54.30
2019-01-13T12:20:15.498Z,54.20
2019-01-13T12:22:43.865Z,54.20
2019-01-13T12:25:14.716Z,54.30
2019-01-13T12:27:43.071Z,54.30
2019-01-13T12:30:17.560Z,54.40
2019-01-13T12:32:45.932Z,54.40
2019-01-13T12:35:14.297Z,54.60
2019-01-13T12:37:42.649Z,54.40
2019-01-13T12:40:14.209Z,54.40
2019-01-13T12:42:42.720Z,54.30
2019-01-13T12:45:14.056Z,54.10
2019-01-13T12:47:42.722Z,54.30
2019-01-13T12:50:17.365Z,54.30
2019-01-13T12:52:45.676Z,54.30
2019-01-13T12:55:14.049Z,54.30
2019-01-13T12:57:42.347Z,54.50
2019-01-13T13:00:16.051Z,54.50
2019-01-13T13:02:44.417Z,54.60
2019-01-13T13:05:13.673Z,54.70
2019-01-13T13:07:42.047Z,54.70
2019-01-13T13:10:23.088Z,54.80
2019-01-13T13:12:51.455Z,54.90
2019-01-13T13:15:19.870Z,55.00
2019-01-13T13:17:48.240Z,55.00
2019-01-13T13:20:16.893Z,55.10
2019-01-13T13:22:45.316Z,55.30
2019-01-13T13:25:15.352Z,55.30
2019-01-13T13:27:43.729Z,55.30
2019-01-13T13:30:21.116Z,55.30
2019-01-13T13:32:49.503Z,55.40
2019-01-13T13:35:17.905Z,55.50
2019-01-13T13:37:46.336Z,55.70
2019-01-13T13:40:25.806Z,55.80
2019-01-13T13:42:54.185Z,55.80
2019-01-13T13:45:22.526Z,55.90
2019-01-13T13:47:50.916Z,56.00
2019-01-13T13:50:21.303Z,56.10
2019-01-13T13:52:49.621Z,56.10
2019-01-13T13:55:17.999Z,56.00
2019-01-13T13:57:46.402Z,56.10
2019-01-13T14:00:23.560Z,56.10
2019-01-13T14:02:51.937Z,56.20
2019-01-13T14:05:20.288Z,56.20
2019-01-13T14:07:48.666Z,56.20
2019-01-13T14:10:22.581Z,56.30
2019-01-13T14:12:50.961Z,56.30
2019-01-13T14:15:19.313Z,56.20
2019-01-13T14:17:47.624Z,56.30
2019-01-13T14:20:18.139Z,56.40
2019-01-13T14:22:46.497Z,56.30
2019-01-13T14:25:14.855Z,56.40
2019-01-13T14:27:43.276Z,56.30
2019-01-13T14:30:21.051Z,56.30
2019-01-13T14:32:49.469Z,56.40
2019-01-13T14:35:17.761Z,56.40
2019-01-13T14:37:46.060Z,56.50
2019-01-13T14:40:22.269Z,56.50
2019-01-13T14:42:50.649Z,56.60
2019-01-13T14:45:21.007Z,56.70
2019-01-13T14:47:49.315Z,56.60
2019-01-13T14:50:39.718Z,56.70
2019-01-13T14:53:08.215Z,56.70
2019-01-13T14:55:36.587Z,56.70
2019-01-13T14:58:04.933Z,56.70
2019-01-13T15:00:33.294Z,56.80
2019-01-13T15:03:01.699Z,56.80
2019-01-13T15:05:30.071Z,56.80
2019-01-13T15:07:58.466Z,56.80
2019-01-13T15:10:26.853Z,56.80
2019-01-13T15:12:55.335Z,56.90
2019-01-13T15:15:23.837Z,57.10
2019-01-13T15:17:52.143Z,57.10
2019-01-13T15:20:21.901Z,57.20
2019-01-13T15:22:51.572Z,57.20
2019-01-13T15:25:25.624Z,57.40
2019-01-13T15:27:54.031Z,57.40
2019-01-13T15:30:25.098Z,57.60
2019-01-13T15:32:53.495Z,57.70
2019-01-13T15:35:21.856Z,57.80
2019-01-13T15:37:50.278Z,58.00
2019-01-13T15:40:20.449Z,57.90
2019-01-13T15:42:48.823Z,57.20
2019-01-13T15:45:17.196Z,57.40
2019-01-13T15:47:45.743Z,57.40
2019-01-13T15:50:16.495Z,57.50
2019-01-13T15:52:44.888Z,57.60
2019-01-13T15:55:13.267Z,57.50
2019-01-13T15:57:41.643Z,57.60
2019-01-13T16:00:18.758Z,57.60
2019-01-13T16:02:47.194Z,57.50
2019-01-13T16:05:15.550Z,57.50
2019-01-13T16:07:43.947Z,57.50
2019-01-13T16:10:20.612Z,57.50
2019-01-13T16:12:49.012Z,57.50
2019-01-13T16:15:17.391Z,57.60
2019-01-13T16:17:45.699Z,57.60
2019-01-13T16:20:17.333Z,57.70
2019-01-13T16:22:45.743Z,57.70
2019-01-13T16:25:14.147Z,57.70
2019-01-13T16:27:42.526Z,57.70
2019-01-13T16:30:19.894Z,57.70
2019-01-13T16:32:48.205Z,57.70
2019-01-13T16:35:16.577Z,57.80
2019-01-13T16:37:45.030Z,57.70
2019-01-13T16:40:18.264Z,57.70
2019-01-13T16:42:46.639Z,57.70
2019-01-13T16:45:16.291Z,57.70
2019-01-13T16:47:44.684Z,57.70
2019-01-13T16:50:18.291Z,57.70
2019-01-13T16:52:48.990Z,57.70
2019-01-13T16:55:17.341Z,57.70
2019-01-13T16:57:45.691Z,57.70
2019-01-13T17:00:17.488Z,57.70
2019-01-13T17:02:45.822Z,57.70
2019-01-13T17:05:16.220Z,57.60
2019-01-13T17:07:44.600Z,57.60
2019-01-13T17:10:15.122Z,57.60
2019-01-13T17:12:43.445Z,57.60
2019-01-13T17:15:14.295Z,57.60
2019-01-13T17:17:42.691Z,57.60
2019-01-13T17:20:15.918Z,57.60
2019-01-13T17:22:44.246Z,57.60
2019-01-13T17:25:15.335Z,57.60
2019-01-13T17:27:43.683Z,57.60
2019-01-13T17:30:15.398Z,58.00
2019-01-13T17:32:43.773Z,57.70
2019-01-13T17:35:12.065Z,57.60
2019-01-13T17:37:40.459Z,57.70
2019-01-13T17:40:14.144Z,57.60
2019-01-13T17:42:42.535Z,57.70
2019-01-13T17:45:17.108Z,57.60
2019-01-13T17:47:46.224Z,57.60
2019-01-13T17:50:16.574Z,57.50
2019-01-13T17:52:44.953Z,57.40
2019-01-13T17:55:15.686Z,57.50
2019-01-13T17:57:44.070Z,57.30
2019-01-13T18:00:34.006Z,57.40
2019-01-13T18:03:05.605Z,57.40
2019-01-13T18:05:33.912Z,57.30
2019-01-13T18:08:02.288Z,57.30
2019-01-13T18:10:30.667Z,57.40
2019-01-13T18:12:59.065Z,57.40
2019-01-13T18:15:27.420Z,57.30
2019-01-13T18:17:55.715Z,57.40
2019-01-13T18:20:24.018Z,57.40
2019-01-13T18:22:52.421Z,57.50
2019-01-13T18:25:20.954Z,57.50
2019-01-13T18:27:49.383Z,57.60
2019-01-13T18:30:23.421Z,57.60
2019-01-13T18:32:51.796Z,58.10
2019-01-13T18:35:21.498Z,57.70
2019-01-13T18:37:49.883Z,57.60
2019-01-13T18:40:20.249Z,57.70
2019-01-13T18:42:48.557Z,57.70
2019-01-13T18:45:16.929Z,57.60
2019-01-13T18:47:45.581Z,57.70
2019-01-13T18:50:24.022Z,57.70
2019-01-13T18:53:04.817Z,57.60
2019-01-13T18:55:33.189Z,57.50
2019-01-13T18:58:01.603Z,57.70
2019-01-13T19:00:29.950Z,57.70
2019-01-13T19:02:58.356Z,57.70
2019-01-13T19:05:28.148Z,57.30
2019-01-13T19:07:56.591Z,57.40
2019-01-13T19:10:48.997Z,57.50
2019-01-13T19:13:29.308Z,57.30
2019-01-13T19:15:58.705Z,57.30
2019-01-13T19:18:26.997Z,57.40
2019-01-13T19:20:55.356Z,57.00
2019-01-13T19:23:25.483Z,57.00
2019-01-13T19:25:53.866Z,56.90
2019-01-13T19:28:22.230Z,56.70
2019-01-13T19:30:50.556Z,56.60
2019-01-13T19:33:18.934Z,56.50
2019-01-13T19:35:47.368Z,56.40
2019-01-13T19:38:15.672Z,56.40
2019-01-13T19:40:44.049Z,56.40
2019-01-13T19:43:12.431Z,56.00
2019-01-13T19:45:40.806Z,56.10
2019-01-13T19:48:09.126Z,55.90
2019-01-13T19:50:37.531Z,55.90
2019-01-13T19:53:05.919Z,55.90
2019-01-13T19:55:34.309Z,56.00
2019-01-13T19:58:02.824Z,56.00
2019-01-13T20:00:32.919Z,55.80
2019-01-13T20:03:01.336Z,55.40
2019-01-13T20:05:29.722Z,55.50
2019-01-13T20:07:58.158Z,55.30
2019-01-13T20:10:26.701Z,55.10
2019-01-13T20:12:55.084Z,55.00
2019-01-13T20:15:26.117Z,55.00
2019-01-13T20:17:54.520Z,54.90
2019-01-13T20:20:22.853Z,54.90
2019-01-13T20:22:51.262Z,54.80
2019-01-13T20:25:19.813Z,54.90
2019-01-13T20:27:48.237Z,54.80
2019-01-13T20:30:28.090Z,54.80
2019-01-13T20:32:57.809Z,54.80
2019-01-13T20:35:26.332Z,54.80
2019-01-13T20:37:54.728Z,54.90
2019-01-13T20:40:23.088Z,54.40
2019-01-13T20:42:51.401Z,54.30
2019-01-13T20:45:28.875Z,54.30
2019-01-13T20:47:57.269Z,54.20
2019-01-13T20:50:25.569Z,54.20
2019-01-13T20:52:53.956Z,54.10
2019-01-13T20:55:22.273Z,54.00
2019-01-13T20:57:50.678Z,54.10
2019-01-13T21:00:21.789Z,53.90
2019-01-13T21:02:50.236Z,53.60
2019-01-13T21:05:18.601Z,53.50
2019-01-13T21:07:47.074Z,53.50
2019-01-13T21:10:19.085Z,53.60
2019-01-13T21:12:47.477Z,53.30
2019-01-13T21:15:29.274Z,53.00
2019-01-13T21:17:57.961Z,53.20
2019-01-13T21:20:26.702Z,53.20
2019-01-13T21:22:55.074Z,53.20
2019-01-13T21:25:23.402Z,53.30
2019-01-13T21:27:52.292Z,53.40
2019-01-13T21:30:23.216Z,53.20
2019-01-13T21:32:51.591Z,53.40
2019-01-13T21:35:19.942Z,53.40
2019-01-13T21:37:48.245Z,53.50
2019-01-13T21:40:16.873Z,53.40
2019-01-13T21:42:45.178Z,53.30
2019-01-13T21:45:16.094Z,53.20
2019-01-13T21:47:47.435Z,52.90
2019-01-13T21:50:17.828Z,52.90
2019-01-13T21:52:46.239Z,52.50
2019-01-13T21:55:16.445Z,52.30
2019-01-13T21:57:44.773Z,52.40
2019-01-13T22:00:22.638Z,52.10
2019-01-13T22:02:51.029Z,52.10
2019-01-13T22:05:19.395Z,52.00
2019-01-13T22:07:47.796Z,51.90
2019-01-13T22:10:20.959Z,51.50
2019-01-13T22:12:49.359Z,51.40
2019-01-13T22:15:19.365Z,51.20
2019-01-13T22:17:47.852Z,50.80
2019-01-13T22:20:18.824Z,50.70
2019-01-13T22:22:47.190Z,50.80
2019-01-13T22:25:15.815Z,50.60
2019-01-13T22:27:44.151Z,50.50
2019-01-13T22:30:15.467Z,49.80
2019-01-13T22:32:43.853Z,50.10
2019-01-13T22:35:12.306Z,49.90
2019-01-13T22:37:40.719Z,49.80
2019-01-13T22:40:11.827Z,49.90
2019-01-13T22:42:40.222Z,50.00
2019-01-13T22:45:11.229Z,50.00
2019-01-13T22:47:39.630Z,50.00
2019-01-13T22:50:12.697Z,50.10
2019-01-13T22:52:41.030Z,50.40
2019-01-13T22:55:30.454Z,49.70
2019-01-13T22:57:58.810Z,49.80
2019-01-13T23:00:48.781Z,49.70
2019-01-13T23:03:17.176Z,49.80
2019-01-13T23:05:45.646Z,49.70
2019-01-13T23:08:14.030Z,49.70
2019-01-13T23:10:42.522Z,49.30
2019-01-13T23:13:10.887Z,49.10
2019-01-13T23:15:39.276Z,49.20
2019-01-13T23:18:07.646Z,48.80
2019-01-13T23:20:35.977Z,48.70
2019-01-13T23:23:04.372Z,48.70
2019-01-13T23:25:32.899Z,49.00
2019-01-13T23:28:01.262Z,49.10
2019-01-13T23:30:29.630Z,49.10
2019-01-13T23:32:57.922Z,49.40
2019-01-13T23:35:26.271Z,49.20
2019-01-13T23:37:54.638Z,49.30
2019-01-13T23:40:23.000Z,49.20
2019-01-13T23:42:51.461Z,49.10
2019-01-13T23:45:19.814Z,49.10
2019-01-13T23:47:48.134Z,49.00
2019-01-13T23:50:16.598Z,49.10
2019-01-13T23:52:45.054Z,48.90
2019-01-13T23:55:13.390Z,48.80
2019-01-13T23:57:41.782Z,48.80
